Time;durP1;ratioP1;P1;durP2;ratioP2;P2;SDS_P1;SDS_P2;PMS_P1;PMS_P2;Temp;Humidity;BMP_temperature;BMP_pressure;BME280_temperature;BME280_humidity;BME280_pressure;Samples;Min_cycle;Max_cycle;Signal;HPM_P1;HPM_P2
2024/03/24 00:01:53;;;;;;;10.30;6.07;;;;;;;;;;5067429;28;20030;-48
2024/03/24 00:04:19;;;;;;;12.07;8.43;;;;;;;;;;5066732;28;20635;-49
2024/03/24 00:06:45;;;;;;;11.40;7.15;;;;;;;;;;5067506;28;20554;-48
2024/03/24 00:09:11;;;;;;;11.32;7.50;;;;;;;;;;5067733;28;20123;-46
2024/03/24 00:11:37;;;;;;;15.40;7.30;;;;;;;;;;5067579;28;20038;-48
2024/03/24 00:14:03;;;;;;;12.25;7.03;;;;;;;;;;5066899;28;20032;-48
2024/03/24 00:16:29;;;;;;;14.73;8.45;;;;;;;;;;5067036;28;20036;-48
2024/03/24 00:18:55;;;;;;;10.70;6.60;;;;;;;;;;5067064;28;20024;-48
2024/03/24 00:21:21;;;;;;;10.70;6.70;;;;;;;;;;5067172;28;20033;-46
2024/03/24 00:23:47;;;;;;;10.30;6.07;;;;;;;;;;5066403;28;20043;-47
2024/03/24 00:26:13;;;;;;;10.07;5.90;;;;;;;;;;5067115;28;20112;-49
2024/03/24 00:28:39;;;;;;;10.23;6.03;;;;;;;;;;5056925;28;20029;-48
2024/03/24 00:31:05;;;;;;;10.40;6.10;;;;;;;;;;5031518;28;20028;-51
2024/03/24 00:33:31;;;;;;;10.80;6.32;;;;;;;;;;5050064;28;20048;-47
2024/03/24 00:35:57;;;;;;;10.52;6.18;;;;;;;;;;5032832;28;20111;-48
2024/03/24 00:38:23;;;;;;;13.43;7.15;;;;;;;;;;5049933;28;20136;-50
2024/03/24 00:40:52;;;;;;;10.68;6.10;;;;;;;;;;5050328;28;20032;-50
2024/03/24 00:43:18;;;;;;;10.88;6.50;;;;;;;;;;5050024;28;20033;-48
2024/03/24 00:45:45;;;;;;;10.65;6.25;;;;;;;;;;5050529;28;20048;-46
2024/03/24 00:48:11;;;;;;;10.88;6.47;;;;;;;;;;5050589;28;20387;-52
2024/03/24 00:50:37;;;;;;;10.40;6.10;;;;;;;;;;5032553;28;20112;-46
2024/03/24 00:53:04;;;;;;;10.77;6.30;;;;;;;;;;5049697;28;20560;-46
2024/03/24 00:55:30;;;;;;;10.80;6.50;;;;;;;;;;5050383;28;20032;-51
2024/03/24 00:58:03;;;;;;;10.88;6.40;;;;;;;;;;5050219;28;20028;-50
2024/03/24 01:00:29;;;;;;;10.25;6.03;;;;;;;;;;5032349;28;20028;-48
2024/03/24 01:02:55;;;;;;;10.65;6.30;;;;;;;;;;5031732;28;20073;-50
2024/03/24 01:05:21;;;;;;;10.80;6.40;;;;;;;;;;5050412;28;20431;-45
2024/03/24 01:07:50;;;;;;;10.98;6.72;;;;;;;;;;5050187;28;20482;-50
2024/03/24 01:10:16;;;;;;;10.63;6.40;;;;;;;;;;5049568;28;20533;-48
2024/03/24 01:12:43;;;;;;;10.63;6.68;;;;;;;;;;5031250;28;20025;-47
2024/03/24 01:15:10;;;;;;;11.55;6.75;;;;;;;;;;5050228;28;20021;-46
2024/03/24 01:17:36;;;;;;;10.52;6.30;;;;;;;;;;5050186;28;20104;-46
2024/03/24 01:20:02;;;;;;;11.55;7.00;;;;;;;;;;5050190;28;20021;-47
2024/03/24 01:22:29;;;;;;;10.20;6.10;;;;;;;;;;5049433;28;20020;-50
2024/03/24 01:24:55;;;;;;;9.57;5.65;;;;;;;;;;5050030;28;20037;-46
2024/03/24 01:27:21;;;;;;;11.63;6.80;;;;;;;;;;5031950;28;20028;-47
2024/03/24 01:29:47;;;;;;;11.02;6.47;;;;;;;;;;5050046;28;20021;-49
2024/03/24 01:32:13;;;;;;;10.30;6.03;;;;;;;;;;5049642;28;20371;-48
2024/03/24 01:34:39;;;;;;;10.70;6.35;;;;;;;;;;5049592;28;20112;-48
2024/03/24 01:37:05;;;;;;;10.80;6.50;;;;;;;;;;5049832;28;20017;-49
2024/03/24 01:39:31;;;;;;;10.50;6.20;;;;;;;;;;5049805;28;20044;-49
2024/03/24 01:41:58;;;;;;;11.23;6.70;;;;;;;;;;5031548;28;20052;-47
2024/03/24 01:44:24;;;;;;;11.70;6.68;;;;;;;;;;5049423;28;20506;-49
2024/03/24 01:46:50;;;;;;;9.60;5.70;;;;;;;;;;5031758;28;20068;-47
2024/03/24 01:49:16;;;;;;;12.27;7.07;;;;;;;;;;5049572;28;20029;-46
2024/03/24 01:51:42;;;;;;;11.38;6.75;;;;;;;;;;5049650;28;20018;-47
2024/03/24 01:54:10;;;;;;;10.63;6.20;;;;;;;;;;5049228;28;20089;-46
2024/03/24 01:56:36;;;;;;;12.05;8.50;;;;;;;;;;5049549;28;20035;-48
2024/03/24 01:59:02;;;;;;;10.82;6.25;;;;;;;;;;5049680;28;20092;-47
2024/03/24 02:01:28;;;;;;;13.30;8.68;;;;;;;;;;5049323;28;20030;-48
2024/03/24 02:03:54;;;;;;;9.98;5.85;;;;;;;;;;5048994;28;20029;-47
2024/03/24 02:06:20;;;;;;;10.75;6.47;;;;;;;;;;5049126;28;20029;-48
2024/03/24 02:08:46;;;;;;;16.33;8.63;;;;;;;;;;5049597;28;20028;-45
2024/03/24 02:11:12;;;;;;;14.88;7.80;;;;;;;;;;5031395;28;20024;-48
2024/03/24 02:13:38;;;;;;;11.63;6.50;;;;;;;;;;5048800;28;20025;-48
2024/03/24 02:16:04;;;;;;;12.02;7.65;;;;;;;;;;5049429;28;20029;-50
2024/03/24 02:18:30;;;;;;;11.90;7.40;;;;;;;;;;5049562;28;20025;-46
2024/03/24 02:20:56;;;;;;;14.77;9.20;;;;;;;;;;5049883;28;20463;-50
2024/03/24 02:23:22;;;;;;;19.10;11.57;;;;;;;;;;5052442;28;20043;-48
2024/03/24 02:25:48;;;;;;;15.05;8.95;;;;;;;;;;5052832;28;20021;-50
2024/03/24 02:28:16;;;;;;;13.63;9.00;;;;;;;;;;5053217;28;20021;-51
2024/03/24 02:30:44;;;;;;;15.30;12.05;;;;;;;;;;5053211;28;20029;-50
2024/03/24 02:33:10;;;;;;;15.33;13.20;;;;;;;;;;5052569;28;20017;-47
2024/03/24 02:35:38;;;;;;;25.20;23.10;;;;;;;;;;5034506;28;20048;-52
2024/03/24 02:38:04;;;;;;;27.83;25.52;;;;;;;;;;5052604;28;20082;-49
2024/03/24 02:40:30;;;;;;;29.55;27.15;;;;;;;;;;5034598;28;20032;-50
2024/03/24 02:42:56;;;;;;;30.25;27.73;;;;;;;;;;5051521;28;20025;-48
2024/03/24 02:45:22;;;;;;;25.45;23.35;;;;;;;;;;5051989;28;20025;-48
2024/03/24 02:47:48;;;;;;;23.95;21.95;;;;;;;;;;5052023;28;20029;-51
2024/03/24 02:50:14;;;;;;;27.48;22.35;;;;;;;;;;5052052;28;20029;-47
2024/03/24 02:52:40;;;;;;;23.60;21.60;;;;;;;;;;5033407;28;20518;-46
2024/03/24 02:55:06;;;;;;;32.00;29.70;;;;;;;;;;5051661;28;20037;-47
2024/03/24 02:57:32;;;;;;;45.40;42.10;;;;;;;;;;5051733;28;20123;-45
2024/03/24 02:59:58;;;;;;;44.88;41.75;;;;;;;;;;5051833;28;20029;-47
2024/03/24 03:02:24;;;;;;;45.28;42.08;;;;;;;;;;5051281;28;20036;-44
2024/03/24 03:04:50;;;;;;;46.72;43.05;;;;;;;;;;5051322;28;20021;-51
2024/03/24 03:07:16;;;;;;;44.35;41.25;;;;;;;;;;5051382;28;20729;-46
2024/03/24 03:09:42;;;;;;;48.50;44.60;;;;;;;;;;5051563;28;20035;-45
2024/03/24 03:12:08;;;;;;;44.20;41.20;;;;;;;;;;5035644;28;20719;-52
2024/03/24 03:14:34;;;;;;;43.50;40.60;;;;;;;;;;5052374;28;20031;-47
2024/03/24 03:17:00;;;;;;;45.65;42.65;;;;;;;;;;5070836;28;20028;-48
2024/03/24 03:19:26;;;;;;;44.83;41.92;;;;;;;;;;5071147;28;20475;-46
2024/03/24 03:21:52;;;;;;;45.05;41.03;;;;;;;;;;5071012;28;20035;-49
2024/03/24 03:24:18;;;;;;;43.22;40.28;;;;;;;;;;5052798;28;20024;-47
2024/03/24 03:26:44;;;;;;;41.85;38.95;;;;;;;;;;5071196;28;20031;-49
2024/03/24 03:29:10;;;;;;;41.60;38.70;;;;;;;;;;5071101;28;20028;-48
2024/03/24 03:31:36;;;;;;;39.38;36.67;;;;;;;;;;5070790;28;20040;-51
2024/03/24 03:34:02;;;;;;;37.13;34.53;;;;;;;;;;5070508;28;20485;-51
2024/03/24 03:36:28;;;;;;;42.10;37.47;;;;;;;;;;5071080;28;20020;-53
2024/03/24 03:38:54;;;;;;;34.47;32.05;;;;;;;;;;5070998;28;20115;-49
2024/03/24 03:41:20;;;;;;;32.67;30.27;;;;;;;;;;5070895;28;20024;-48
2024/03/24 03:43:47;;;;;;;35.25;32.42;;;;;;;;;;5070656;28;20085;-49
2024/03/24 03:46:13;;;;;;;30.08;27.77;;;;;;;;;;5071002;28;20025;-51
2024/03/24 03:48:43;;;;;;;29.17;26.77;;;;;;;;;;5071433;28;20051;-49
2024/03/24 03:51:17;;;;;;;28.25;26.00;;;;;;;;;;5071259;28;20037;-47
2024/03/24 03:53:49;;;;;;;27.30;25.08;;;;;;;;;;5070794;28;20024;-49
2024/03/24 03:56:15;;;;;;;26.42;24.33;;;;;;;;;;5071468;28;20100;-51
2024/03/24 03:58:41;;;;;;;26.77;24.58;;;;;;;;;;5070937;28;20096;-46
2024/03/24 04:01:07;;;;;;;23.02;21.13;;;;;;;;;;5070160;28;20025;-48
2024/03/24 04:03:35;;;;;;;24.55;22.25;;;;;;;;;;5070223;28;20626;-47
2024/03/24 04:06:03;;;;;;;23.50;21.37;;;;;;;;;;5070604;28;20090;-56
2024/03/24 04:08:29;;;;;;;;;;;;;;;;;;5071178;28;20055;-50
2024/03/24 04:10:55;;;;;;;22.67;20.67;;;;;;;;;;5070800;28;20316;-53
2024/03/24 04:13:21;;;;;;;21.17;19.33;;;;;;;;;;5070318;28;20031;-47
2024/03/24 04:15:47;;;;;;;22.88;20.88;;;;;;;;;;5070934;28;20383;-47
2024/03/24 04:18:13;;;;;;;22.55;20.55;;;;;;;;;;5071004;28;20044;-48
2024/03/24 04:20:39;;;;;;;23.83;21.40;;;;;;;;;;5070008;28;20016;-47
2024/03/24 04:23:05;;;;;;;20.92;19.13;;;;;;;;;;5070112;28;20032;-49
2024/03/24 04:25:31;;;;;;;20.38;18.55;;;;;;;;;;5070904;28;20032;-49
2024/03/24 04:27:57;;;;;;;20.35;18.45;;;;;;;;;;5071035;28;20036;-50
2024/03/24 04:30:23;;;;;;;21.40;19.40;;;;;;;;;;5071080;28;20028;-50
2024/03/24 04:32:49;;;;;;;20.98;19.08;;;;;;;;;;5070237;28;20198;-47
2024/03/24 04:35:15;;;;;;;21.55;19.65;;;;;;;;;;5070902;28;20032;-51
2024/03/24 04:37:41;;;;;;;21.13;19.20;;;;;;;;;;5070469;28;20027;-52
2024/03/24 04:40:08;;;;;;;21.17;19.25;;;;;;;;;;5052334;28;20510;-46
2024/03/24 04:42:34;;;;;;;26.73;24.48;;;;;;;;;;5069673;28;20024;-46
2024/03/24 04:45:03;;;;;;;27.20;25.00;;;;;;;;;;5051790;28;20112;-46
2024/03/24 04:47:30;;;;;;;27.27;25.17;;;;;;;;;;5070329;28;20024;-53
2024/03/24 04:49:56;;;;;;;31.23;28.30;;;;;;;;;;5070364;28;20081;-46
2024/03/24 04:52:23;;;;;;;30.05;27.40;;;;;;;;;;5069692;28;20028;-48
2024/03/24 04:54:49;;;;;;;26.25;24.15;;;;;;;;;;5069866;28;20028;-53
2024/03/24 04:57:16;;;;;;;28.20;26.05;;;;;;;;;;5070322;28;20089;-46
2024/03/24 04:59:42;;;;;;;28.10;25.90;;;;;;;;;;5070667;28;20470;-51
2024/03/24 05:02:08;;;;;;;28.55;26.35;;;;;;;;;;5070093;28;20023;-46
2024/03/24 05:04:35;;;;;;;26.55;24.45;;;;;;;;;;5070188;28;20410;-47
2024/03/24 05:07:01;;;;;;;26.33;24.23;;;;;;;;;;5069102;28;20044;-47
2024/03/24 05:09:28;;;;;;;25.23;23.23;;;;;;;;;;5070407;28;20056;-46
2024/03/24 05:11:54;;;;;;;28.63;26.42;;;;;;;;;;5069905;28;20040;-51
2024/03/24 05:14:20;;;;;;;27.48;25.38;;;;;;;;;;5069499;28;20021;-50
2024/03/24 05:16:46;;;;;;;36.22;33.72;;;;;;;;;;5069892;28;20120;-48
2024/03/24 05:19:12;;;;;;;40.25;37.35;;;;;;;;;;5069909;28;20025;-50
2024/03/24 05:21:37;;;;;;;35.67;33.17;;;;;;;;;;5069754;28;20433;-46
2024/03/24 05:24:05;;;;;;;35.38;32.92;;;;;;;;;;5069596;28;20032;-47
2024/03/24 05:26:31;;;;;;;37.65;35.05;;;;;;;;;;5070128;28;20363;-47
2024/03/24 05:28:57;;;;;;;38.10;35.50;;;;;;;;;;5070114;28;20025;-46
2024/03/24 05:31:23;;;;;;;36.22;33.72;;;;;;;;;;5069740;28;20025;-46
2024/03/24 05:33:49;;;;;;;34.05;31.65;;;;;;;;;;5069268;28;20385;-46
2024/03/24 05:36:15;;;;;;;35.50;33.00;;;;;;;;;;5069800;28;20553;-45
2024/03/24 05:38:41;;;;;;;36.40;33.90;;;;;;;;;;5068590;28;20028;-46
2024/03/24 05:41:09;;;;;;;35.65;33.15;;;;;;;;;;5069959;28;20385;-46
2024/03/24 05:43:38;;;;;;;35.70;33.20;;;;;;;;;;5069363;28;20397;-47
2024/03/24 05:46:06;;;;;;;34.08;31.67;;;;;;;;;;5069604;28;20060;-51
2024/03/24 05:48:34;;;;;;;33.20;30.80;;;;;;;;;;5069810;28;20166;-47
2024/03/24 05:51:01;;;;;;;31.65;29.35;;;;;;;;;;5069612;28;20427;-52
2024/03/24 05:53:27;;;;;;;33.03;30.70;;;;;;;;;;5069076;28;20052;-47
2024/03/24 05:55:53;;;;;;;31.60;29.30;;;;;;;;;;5070474;28;20086;-48
2024/03/24 05:58:21;;;;;;;31.50;29.20;;;;;;;;;;5073628;28;20021;-49
2024/03/24 06:00:48;;;;;;;30.20;28.00;;;;;;;;;;5073436;28;20504;-47
2024/03/24 06:03:14;;;;;;;27.40;25.30;;;;;;;;;;5071602;28;20056;-49
2024/03/24 06:05:41;;;;;;;26.67;24.58;;;;;;;;;;5073596;28;20025;-50
2024/03/24 06:08:10;;;;;;;24.95;22.95;;;;;;;;;;5073209;28;20045;-46
2024/03/24 06:10:36;;;;;;;24.75;22.75;;;;;;;;;;5073273;28;20024;-47
2024/03/24 06:13:02;;;;;;;24.35;22.35;;;;;;;;;;5072761;28;20385;-49
2024/03/24 06:15:28;;;;;;;23.65;21.75;;;;;;;;;;5072226;28;20035;-46
2024/03/24 06:17:55;;;;;;;22.92;21.02;;;;;;;;;;5073225;28;20098;-46
2024/03/24 06:20:21;;;;;;;21.75;19.85;;;;;;;;;;5073294;28;20479;-49
2024/03/24 06:22:47;;;;;;;21.45;19.55;;;;;;;;;;5072451;28;20111;-48
2024/03/24 06:25:12;;;;;;;21.00;19.20;;;;;;;;;;5073361;28;20028;-47
2024/03/24 06:27:38;;;;;;;20.38;18.58;;;;;;;;;;5073160;28;20078;-47
2024/03/24 06:30:05;;;;;;;19.88;18.08;;;;;;;;;;5072507;28;20490;-52
2024/03/24 06:32:31;;;;;;;20.38;18.58;;;;;;;;;;5070969;28;20085;-47
2024/03/24 06:34:57;;;;;;;20.10;18.30;;;;;;;;;;5072900;28;20479;-47
2024/03/24 06:37:23;;;;;;;20.52;18.73;;;;;;;;;;5072854;28;20093;-52
2024/03/24 06:39:51;;;;;;;20.95;19.15;;;;;;;;;;5072816;28;20154;-47
2024/03/24 06:42:18;;;;;;;20.48;18.67;;;;;;;;;;5072512;28;20028;-52
2024/03/24 06:44:46;;;;;;;20.65;18.85;;;;;;;;;;5072287;28;20028;-46
2024/03/24 06:47:12;;;;;;;20.17;18.38;;;;;;;;;;5072725;28;20372;-48
2024/03/24 06:49:38;;;;;;;19.48;17.67;;;;;;;;;;5072559;28;20039;-48
2024/03/24 06:52:04;;;;;;;18.90;17.10;;;;;;;;;;5072335;28;20035;-47
2024/03/24 06:54:30;;;;;;;18.67;16.88;;;;;;;;;;5072182;28;20059;-46
2024/03/24 06:56:56;;;;;;;18.40;16.60;;;;;;;;;;5072442;28;20447;-48
2024/03/24 06:59:22;;;;;;;18.02;16.33;;;;;;;;;;5073019;28;20359;-47
2024/03/24 07:01:48;;;;;;;17.45;15.75;;;;;;;;;;5072169;28;20090;-47
2024/03/24 07:04:15;;;;;;;17.65;15.95;;;;;;;;;;5072113;28;20028;-50
2024/03/24 07:06:42;;;;;;;17.40;15.70;;;;;;;;;;5071493;28;20052;-47
2024/03/24 07:09:07;;;;;;;17.38;15.68;;;;;;;;;;5072171;28;20107;-52
2024/03/24 07:11:33;;;;;;;17.00;15.30;;;;;;;;;;5072244;28;20466;-47
2024/03/24 07:13:59;;;;;;;17.13;15.43;;;;;;;;;;5071857;28;20025;-48
2024/03/24 07:16:25;;;;;;;17.10;15.40;;;;;;;;;;5072166;28;20066;-51
2024/03/24 07:18:51;;;;;;;16.90;15.20;;;;;;;;;;5072361;28;20091;-50
2024/03/24 07:21:17;;;;;;;17.17;15.48;;;;;;;;;;5072072;28;20025;-48
2024/03/24 07:23:43;;;;;;;16.73;15.02;;;;;;;;;;5071949;28;20031;-47
2024/03/24 07:26:09;;;;;;;16.55;14.85;;;;;;;;;;5072341;28;20070;-48
2024/03/24 07:28:35;;;;;;;16.50;14.80;;;;;;;;;;5072283;28;20600;-47
2024/03/24 07:31:01;;;;;;;16.38;14.68;;;;;;;;;;5072180;28;20478;-47
2024/03/24 07:33:27;;;;;;;16.52;14.82;;;;;;;;;;5071556;28;20032;-48
2024/03/24 07:35:53;;;;;;;15.95;14.25;;;;;;;;;;5071994;28;20025;-50
2024/03/24 07:38:19;;;;;;;15.45;13.77;;;;;;;;;;5070939;28;20382;-46
2024/03/24 07:40:45;;;;;;;15.10;13.20;;;;;;;;;;5071952;28;20021;-49
2024/03/24 07:43:11;;;;;;;14.90;12.60;;;;;;;;;;5071145;28;20017;-52
2024/03/24 07:45:38;;;;;;;14.80;12.30;;;;;;;;;;5071568;28;20371;-49
2024/03/24 07:48:04;;;;;;;14.60;11.73;;;;;;;;;;5071433;28;20421;-47
2024/03/24 07:50:30;;;;;;;14.32;10.80;;;;;;;;;;5071656;28;20028;-47
2024/03/24 07:52:56;;;;;;;13.85;9.45;;;;;;;;;;5069330;28;20115;-48
2024/03/24 07:55:22;;;;;;;13.73;9.30;;;;;;;;;;5071552;28;20471;-49
2024/03/24 07:57:48;;;;;;;13.77;9.20;;;;;;;;;;5071465;28;20045;-50
2024/03/24 08:00:14;;;;;;;13.65;9.05;;;;;;;;;;5070072;28;20505;-46
2024/03/24 08:02:40;;;;;;;13.63;8.80;;;;;;;;;;5070560;28;20089;-47
2024/03/24 08:05:06;;;;;;;13.43;8.10;;;;;;;;;;5071393;28;20029;-47
2024/03/24 08:07:33;;;;;;;13.18;7.72;;;;;;;;;;5070951;28;20545;-49
2024/03/24 08:09:59;;;;;;;13.18;7.78;;;;;;;;;;5071280;28;20111;-48
2024/03/24 08:12:25;;;;;;;12.85;7.50;;;;;;;;;;5070985;28;20158;-52
2024/03/24 08:14:51;;;;;;;12.90;7.50;;;;;;;;;;5070670;28;20040;-52
2024/03/24 08:17:17;;;;;;;12.90;7.50;;;;;;;;;;5069729;28;20024;-48
2024/03/24 08:19:43;;;;;;;12.65;7.40;;;;;;;;;;5070040;28;20367;-53
2024/03/24 08:22:09;;;;;;;11.55;6.75;;;;;;;;;;5069236;28;20066;-49
2024/03/24 08:24:35;;;;;;;12.40;7.20;;;;;;;;;;5069257;28;20029;-48
2024/03/24 08:27:01;;;;;;;11.95;6.95;;;;;;;;;;5070604;28;20103;-47
2024/03/24 08:29:27;;;;;;;11.82;6.95;;;;;;;;;;5074191;28;20104;-46
2024/03/24 08:31:53;;;;;;;11.60;6.80;;;;;;;;;;5063015;28;20033;-47
2024/03/24 08:34:19;;;;;;;11.55;6.75;;;;;;;;;;5088382;28;20024;-46
2024/03/24 08:36:45;;;;;;;11.77;6.85;;;;;;;;;;5086474;28;20024;-53
2024/03/24 08:39:11;;;;;;;11.38;6.65;;;;;;;;;;5070352;28;20101;-49
2024/03/24 08:41:37;;;;;;;11.70;6.80;;;;;;;;;;5070381;28;20056;-47
2024/03/24 08:44:03;;;;;;;11.95;7.00;;;;;;;;;;5070121;28;20490;-46
2024/03/24 08:46:29;;;;;;;11.85;6.95;;;;;;;;;;5084280;28;20034;-51
2024/03/24 08:48:57;;;;;;;11.55;6.80;;;;;;;;;;5090464;28;20050;-50
2024/03/24 08:51:23;;;;;;;11.93;6.95;;;;;;;;;;5090470;28;20027;-50
2024/03/24 08:53:49;;;;;;;12.02;7.00;;;;;;;;;;5090286;28;20036;-50
2024/03/24 08:56:16;;;;;;;11.38;6.70;;;;;;;;;;5090794;28;20536;-49
2024/03/24 08:58:42;;;;;;;11.27;6.57;;;;;;;;;;5090447;28;20035;-49
2024/03/24 09:01:08;;;;;;;11.70;6.85;;;;;;;;;;5090315;28;20021;-48
2024/03/24 09:03:34;;;;;;;12.05;7.03;;;;;;;;;;5075404;28;20047;-48
2024/03/24 09:06:00;;;;;;;12.10;7.00;;;;;;;;;;5069901;28;20064;-48
2024/03/24 09:08:26;;;;;;;11.23;6.57;;;;;;;;;;5052556;28;20028;-49
2024/03/24 09:10:52;;;;;;;12.00;7.00;;;;;;;;;;5070294;28;20555;-47
2024/03/24 09:13:18;;;;;;;11.40;6.70;;;;;;;;;;5069079;28;20104;-50
2024/03/24 09:15:44;;;;;;;11.48;6.70;;;;;;;;;;5070035;28;20025;-49
2024/03/24 09:18:10;;;;;;;11.68;6.80;;;;;;;;;;5070072;28;20037;-48
2024/03/24 09:20:36;;;;;;;12.18;7.07;;;;;;;;;;5051894;28;20029;-48
2024/03/24 09:23:02;;;;;;;12.32;7.15;;;;;;;;;;5069488;28;20100;-47
2024/03/24 09:25:28;;;;;;;12.27;7.07;;;;;;;;;;5069905;28;20446;-47
2024/03/24 09:27:54;;;;;;;12.10;7.00;;;;;;;;;;5070269;28;20095;-51
2024/03/24 09:30:20;;;;;;;11.30;6.60;;;;;;;;;;5071128;28;20024;-47
2024/03/24 09:32:47;;;;;;;11.15;6.50;;;;;;;;;;5073538;28;20021;-50
2024/03/24 09:35:13;;;;;;;10.77;6.30;;;;;;;;;;5074110;28;20086;-47
2024/03/24 09:37:39;;;;;;;11.13;6.53;;;;;;;;;;5073624;28;20024;-47
2024/03/24 09:40:05;;;;;;;11.55;6.75;;;;;;;;;;5073846;28;20120;-46
2024/03/24 09:42:34;;;;;;;11.60;6.80;;;;;;;;;;5072923;28;20074;-46
2024/03/24 09:45:03;;;;;;;12.13;7.07;;;;;;;;;;5073803;28;20078;-50
2024/03/24 09:47:29;;;;;;;11.93;6.95;;;;;;;;;;5073846;28;20028;-46
2024/03/24 09:49:59;;;;;;;11.90;7.00;;;;;;;;;;5073836;28;20063;-47
2024/03/24 09:52:27;;;;;;;12.05;7.00;;;;;;;;;;5073443;28;20385;-50
2024/03/24 09:54:54;;;;;;;11.70;6.80;;;;;;;;;;5073270;28;20111;-47
2024/03/24 09:57:20;;;;;;;11.27;6.60;;;;;;;;;;5073758;28;20021;-46
2024/03/24 09:59:48;;;;;;;11.88;6.90;;;;;;;;;;5073821;28;20024;-46
2024/03/24 10:02:15;;;;;;;11.65;6.85;;;;;;;;;;5073486;28;20032;-46
2024/03/24 10:04:41;;;;;;;11.50;6.70;;;;;;;;;;5089254;28;20072;-49
2024/03/24 10:07:07;;;;;;;11.43;6.63;;;;;;;;;;5093909;28;20044;-49
2024/03/24 10:09:33;;;;;;;12.50;7.30;;;;;;;;;;5093946;28;20035;-51
2024/03/24 10:12:11;;;;;;;11.40;6.60;;;;;;;;;;5093653;28;20020;-52
2024/03/24 10:14:37;;;;;;;11.52;6.70;;;;;;;;;;5075148;28;20585;-49
2024/03/24 10:17:16;;;;;;;11.52;6.75;;;;;;;;;;5093610;28;20028;-49
2024/03/24 10:19:45;;;;;;;12.23;7.10;;;;;;;;;;5093592;28;20023;-50
2024/03/24 10:22:12;;;;;;;12.75;7.60;;;;;;;;;;5092339;28;20440;-48
2024/03/24 10:24:38;;;;;;;14.20;8.52;;;;;;;;;;5093514;28;20028;-53
2024/03/24 10:27:04;;;;;;;15.88;8.43;;;;;;;;;;5093358;28;20035;-48
2024/03/24 10:29:30;;;;;;;13.93;8.45;;;;;;;;;;5080351;28;20031;-51
2024/03/24 10:31:56;;;;;;;19.60;7.93;;;;;;;;;;5051305;28;20558;-51
2024/03/24 10:34:22;;;;;;;13.57;8.27;;;;;;;;;;5051248;28;20037;-50
2024/03/24 10:36:48;;;;;;;13.90;8.10;;;;;;;;;;5051481;28;20643;-51
2024/03/24 10:39:14;;;;;;;13.50;8.30;;;;;;;;;;5051718;28;20071;-49
2024/03/24 10:41:41;;;;;;;13.27;7.80;;;;;;;;;;5032227;28;20029;-53
2024/03/24 10:44:09;;;;;;;14.85;10.20;;;;;;;;;;5051382;28;20463;-47
2024/03/24 10:46:37;;;;;;;14.60;9.60;;;;;;;;;;5052693;28;20036;-49
2024/03/24 10:49:04;;;;;;;17.30;10.00;;;;;;;;;;5052686;28;20059;-52
2024/03/24 10:51:31;;;;;;;14.30;9.20;;;;;;;;;;5052872;28;20108;-52
2024/03/24 10:54:03;;;;;;;13.50;8.30;;;;;;;;;;5034814;28;20040;-50
2024/03/24 10:56:32;;;;;;;13.40;8.02;;;;;;;;;;5052470;28;20052;-49
2024/03/24 10:59:02;;;;;;;17.40;10.48;;;;;;;;;;5034374;28;20446;-48
2024/03/24 11:01:29;;;;;;;17.23;10.68;;;;;;;;;;5052613;28;20021;-50
2024/03/24 11:03:59;;;;;;;15.00;10.50;;;;;;;;;;5052288;28;20021;-48
2024/03/24 11:06:26;;;;;;;14.02;9.40;;;;;;;;;;5052114;28;20036;-49
2024/03/24 11:08:52;;;;;;;13.70;8.77;;;;;;;;;;5052625;28;20579;-46
2024/03/24 11:11:19;;;;;;;16.15;10.70;;;;;;;;;;5052472;28;20032;-50
2024/03/24 11:13:45;;;;;;;18.13;10.23;;;;;;;;;;5052695;28;20050;-53
2024/03/24 11:16:11;;;;;;;14.63;9.15;;;;;;;;;;5052320;28;20121;-53
2024/03/24 11:18:37;;;;;;;14.45;10.25;;;;;;;;;;5052116;28;20052;-50
2024/03/24 11:21:06;;;;;;;15.00;11.20;;;;;;;;;;5052369;28;20021;-50
2024/03/24 11:23:39;;;;;;;14.70;11.40;;;;;;;;;;5052121;28;20134;-46
2024/03/24 11:26:11;;;;;;;14.35;10.68;;;;;;;;;;5052300;28;20049;-47
2024/03/24 11:28:41;;;;;;;14.60;11.30;;;;;;;;;;5052336;28;20040;-52
2024/03/24 11:31:14;;;;;;;14.70;11.15;;;;;;;;;;5052032;28;20402;-47
2024/03/24 11:33:40;;;;;;;14.27;10.68;;;;;;;;;;5051549;28;20394;-48
2024/03/24 11:36:19;;;;;;;15.32;10.90;;;;;;;;;;5051886;28;20086;-47
2024/03/24 11:38:46;;;;;;;20.33;10.43;;;;;;;;;;5051590;28;20025;-48
2024/03/24 11:41:15;;;;;;;14.20;10.30;;;;;;;;;;5051833;28;20032;-47
2024/03/24 11:43:41;;;;;;;14.20;9.73;;;;;;;;;;5051432;28;20150;-48
2024/03/24 11:46:13;;;;;;;13.77;9.10;;;;;;;;;;5051533;28;20029;-50
2024/03/24 11:48:39;;;;;;;14.65;9.10;;;;;;;;;;5051601;28;20099;-48
2024/03/24 11:51:06;;;;;;;13.90;9.10;;;;;;;;;;5051412;28;20031;-46
2024/03/24 11:53:32;;;;;;;14.10;9.13;;;;;;;;;;5051133;28;20021;-48
2024/03/24 11:55:58;;;;;;;13.73;9.10;;;;;;;;;;5050905;28;20090;-50
2024/03/24 11:58:25;;;;;;;13.80;9.20;;;;;;;;;;5051406;28;20017;-52
2024/03/24 12:00:51;;;;;;;13.50;8.55;;;;;;;;;;5033390;28;20495;-49
2024/03/24 12:03:17;;;;;;;13.85;8.90;;;;;;;;;;5051143;28;20025;-50
2024/03/24 12:05:44;;;;;;;13.60;8.20;;;;;;;;;;5051009;28;20055;-51
2024/03/24 12:08:10;;;;;;;13.23;8.20;;;;;;;;;;5051083;28;20033;-48
2024/03/24 12:10:36;;;;;;;13.55;8.25;;;;;;;;;;5051259;28;20634;-49
2024/03/24 12:13:03;;;;;;;13.90;8.70;;;;;;;;;;5050932;28;20057;-51
2024/03/24 12:15:29;;;;;;;13.45;8.18;;;;;;;;;;5050933;28;20039;-55
2024/03/24 12:18:06;;;;;;;13.60;8.25;;;;;;;;;;5033262;28;20048;-51
2024/03/24 12:20:32;;;;;;;13.70;8.68;;;;;;;;;;4707525;28;9999934;-53
2024/03/24 12:22:58;;;;;;;12.40;7.20;;;;;;;;;;5056720;28;20103;-48
2024/03/24 12:25:24;;;;;;;15.80;8.45;;;;;;;;;;5060719;28;20149;-53
2024/03/24 12:27:54;;;;;;;12.70;7.50;;;;;;;;;;5047891;28;20054;-51
2024/03/24 12:30:24;;;;;;;12.25;7.10;;;;;;;;;;5111557;22;20426;-50
2024/03/24 12:32:50;;;;;;;13.13;7.82;;;;;;;;;;5085711;28;20025;-50
2024/03/24 12:35:20;;;;;;;13.88;7.90;;;;;;;;;;5077972;28;20122;-57
2024/03/24 12:37:46;;;;;;;13.02;7.57;;;;;;;;;;5083918;28;20562;-57
2024/03/24 12:40:24;;;;;;;13.20;7.80;;;;;;;;;;5075832;28;20412;-57
2024/03/24 12:42:50;;;;;;;23.75;7.95;;;;;;;;;;5079032;28;20050;-58
2024/03/24 12:45:17;;;;;;;14.00;8.70;;;;;;;;;;5072052;28;20560;-56
2024/03/24 12:47:44;;;;;;;13.70;8.90;;;;;;;;;;5074737;28;20039;-53
2024/03/24 12:50:28;;;;;;;14.00;9.57;;;;;;;;;;5077339;28;20127;-54
2024/03/24 12:53:02;;;;;;;13.65;8.80;;;;;;;;;;5075340;28;20020;-54
2024/03/24 12:55:28;;;;;;;13.68;9.02;;;;;;;;;;5076244;28;20043;-56
2024/03/24 12:57:56;;;;;;;23.00;15.68;;;;;;;;;;5086922;28;20103;-55
2024/03/24 13:00:22;;;;;;;24.35;22.25;;;;;;;;;;5087065;28;20083;-55
2024/03/24 13:02:48;;;;;;;27.15;24.90;;;;;;;;;;5084202;28;20119;-56
2024/03/24 13:05:16;;;;;;;34.10;31.02;;;;;;;;;;5069373;28;20032;-53
2024/03/24 13:07:43;;;;;;;30.20;27.90;;;;;;;;;;5081964;28;20598;-53
2024/03/24 13:10:11;;;;;;;36.75;33.63;;;;;;;;;;5075644;28;20120;-55
2024/03/24 13:12:37;;;;;;;37.92;35.15;;;;;;;;;;5076505;28;20469;-56
2024/03/24 13:15:03;;;;;;;41.40;38.50;;;;;;;;;;5069848;28;20033;-52
2024/03/24 13:17:32;;;;;;;38.92;36.22;;;;;;;;;;5066872;28;20120;-57
2024/03/24 13:20:06;;;;;;;41.03;38.22;;;;;;;;;;5050268;28;20107;-51
2024/03/24 13:22:32;;;;;;;35.85;33.33;;;;;;;;;;5086347;28;20134;-53
2024/03/24 13:25:04;;;;;;;34.67;32.17;;;;;;;;;;5066612;28;20107;-55
2024/03/24 13:27:40;;;;;;;25.52;23.42;;;;;;;;;;5075194;28;20029;-52
2024/03/24 13:30:06;;;;;;;23.90;21.90;;;;;;;;;;5075409;28;20043;-53
2024/03/24 13:32:32;;;;;;;22.52;20.52;;;;;;;;;;5058639;28;20084;-54
2024/03/24 13:34:58;;;;;;;21.00;19.10;;;;;;;;;;5077361;28;20168;-53
2024/03/24 13:37:27;;;;;;;21.15;19.25;;;;;;;;;;5079411;28;20494;-52
2024/03/24 13:39:53;;;;;;;21.52;19.63;;;;;;;;;;5082267;28;20054;-57
2024/03/24 13:42:38;;;;;;;25.65;23.55;;;;;;;;;;5076881;28;20020;-52
2024/03/24 13:45:07;;;;;;;28.70;26.48;;;;;;;;;;5069144;28;20167;-54
2024/03/24 13:47:33;;;;;;;27.65;25.55;;;;;;;;;;5068988;28;20403;-54
2024/03/24 13:50:03;;;;;;;29.05;26.85;;;;;;;;;;5069338;28;20029;-51
2024/03/24 13:52:31;;;;;;;28.13;25.95;;;;;;;;;;5078875;28;20025;-49
2024/03/24 13:54:59;;;;;;;24.30;22.30;;;;;;;;;;5079912;28;20024;-54
2024/03/24 13:57:25;;;;;;;21.33;19.42;;;;;;;;;;5080124;28;20021;-55
2024/03/24 13:59:51;;;;;;;20.48;18.67;;;;;;;;;;5089892;28;20593;-52
2024/03/24 14:02:17;;;;;;;19.38;17.58;;;;;;;;;;5090059;28;20026;-54
2024/03/24 14:04:44;;;;;;;17.48;15.77;;;;;;;;;;5089437;28;20562;-56
2024/03/24 14:07:10;;;;;;;15.18;13.05;;;;;;;;;;5089229;28;20032;-52
2024/03/24 14:09:36;;;;;;;15.48;13.75;;;;;;;;;;5070963;28;20073;-57
2024/03/24 14:12:04;;;;;;;15.40;13.70;;;;;;;;;;5089112;28;20032;-52
2024/03/24 14:14:36;;;;;;;15.35;13.57;;;;;;;;;;5089024;28;20031;-53
2024/03/24 14:17:02;;;;;;;15.50;13.77;;;;;;;;;;5091715;28;20048;-53
2024/03/24 14:19:34;;;;;;;15.10;12.98;;;;;;;;;;5092977;28;20020;-52
2024/03/24 14:22:10;;;;;;;15.38;13.57;;;;;;;;;;5093082;28;20041;-55